Racecast

Lina Corrales

Douglas County (CO) · 12 · CONTINENTALCO D5A5A · Compare head to head

Athlete ratingi 137.0 2018 TF season
Best race 138.9 TF
Races 48
Seasons 5 2014 — 2018

RankedNation #242·CO #18·CO D5A #14·CONTINENTAL #6·Team #2 ?

Speed rating — all races

Cross Country

XC speed rating

2017 XC 135.6

Douglas County (CO) · Grade 12

Date Meet Event Result Place Ratingi Difficultyi PR/SR Flags
2017-10-28 Norris Penrose Event Center 5000m 18:47.2 12th · 1st on team 137.8 +4.3% ★CR R CSR RSR
2017-10-19 Monument Valley Park 5000m 18:53.4 7th · 1st on team 134.6 +0.9% ★CR CSR
2017-09-30 Polson Ranch 5000m 19:09 5th · 1st on team 135.3 +1.8% ★CR CSR
2017-09-08 Heritage High School 5000m 18:11 4th · 1st on team 135.8 -2.3% ★PR ★CR R SR CSR RSR
2017-08-25 Norris Penrose Event Center 5000m 19:33.6 4th · 1st on team 134.6 +4.3% CR SR CSR RSR

2016 XC 125.6

Douglas County (CO) · Grade 11

Date Meet Event Result Place Ratingi Difficultyi PR/SR Flags
2016-11-19 Grande Sports Complex 5000m 19:41 25th · 1st on team 127.4 -1.6% ★CR CSR
2016-10-29 Norris Penrose Event Center 5000m 21:05.3 82nd · 1st on team 125.7 +4.3% CR CSR
2016-10-20 Monument Valley Park 5000m 19:11.3 11th · 1st on team 132.7 +0.9% PR CR R SR CSR RSR
2016-09-09 Heritage High School 5000m 19:48 32nd · 1st on team 125.7 -2.3% PR CR R SR CSR RSR
2016-09-02 Julia deKoevend Park 5000m 21:08 29th · 1st on team 122.3 +3.1% ★CR SR CSR RSR
2016-08-25 Norris Penrose Event Center 5000m 21:44.3 18th · 1st on team 119.9 +4.3% CR SR CSR RSR

2015 XC 113.5

Douglas County (CO) · Grade 10

Date Meet Event Result Place Ratingi Difficultyi PR/SR Flags
2015-10-23 Rock Canyon Invitational Course 5000m 21:00 51st · 3rd on team 121.2 +0.9% PR ★CR SR CSR RSR
2015-10-03 Polson Ranch 5000m 22:40.8 91st · 3rd on team 112.6 +1.8% CR CSR
2015-09-24 Monument Valley Park 5000m 22:28.1 61st · 4th on team 114.0 +0.9% CR SR CSR RSR
2015-09-17 Air Academy High School 5000m 23:06 23rd · 5th on team 113.5 +3.8% ★CR CSR RSR
2015-09-11 Heritage High School 5000m 22:37 132nd · 4th on team 109.6 -2.3% SR CSR
2015-09-03 Salisbury Regional Park 5000m 23:24 34th · 4th on team 110.1 +2.7% ★CR SR CSR RSR

2014 XC 113.9

Douglas County (CO) · Grade 9

Date Meet Event Result Place Ratingi Difficultyi PR/SR Flags
2014-09-12 Heritage High School 5000m 21:20 38th · 1st on team 113.9 -2.3% PR CR R SR CSR RSR

Track & Field

TF speed rating

2018 TF 134.5

Douglas County (CO) · Grade 12

Date Meet Event Result Place Ratingi Difficultyi PR/SR Flags
2018-05-19 CHSAA 5A State Championships 3200m 11:12.18 5th · 1st on team 135.3 +2.1%
2018-05-19 CHSAA 5A State Championships 1600m 5:04.84 9th · 1st on team 138.7 +2.1%
2018-05-10 Continental League Championships 1600m 5:06.22 1st · 1st on team 138.9 +2.9% ★R RSR
2018-05-05 Cherry Creek Invitational 800m 2:18.42 3rd · 1st on team 135.3 +1.8% SR
2018-04-28 Liberty Bell Invitational 3200m 11:05.84 4th · 1st on team 136.6 +1.7%
2018-04-14 Pomona Invite 1600m 5:09.4 1st · 1st on team 137.5 +2.1% RSR
2018-04-07 Arcadia Invitational 1500m 4:44.6 4th · 1st on team 132.4 -1.7% ★PR SR
2018-04-07 Arcadia Invitational 1mile 5:04.32 4th · 1st on team 134.2 -1.7% ★PR SR
2018-04-07 Arcadia Invitational 800m 2:20.81 35th · 1st on team 128.4 -1.7% SR
2018-04-07 Arcadia Invitational 3200m 10:55.3 9th · 1st on team 133.9 -1.7% ★PR SR
2018-04-07 Arcadia Invitational 1600m 5:02.64 4th · 1st on team 134.0 -1.7% ★PR SR
2018-03-23 Runners Roost of Fort Collins Invitational 800m 2:21.36 2nd · 2nd on team 132.4 +2.0% SR
2018-03-17 Thunder Ridge Invitational 1600m 5:13.19 2nd · 1st on team 136.0 +2.9% PR SR RSR
2018-03-17 Thunder Ridge Invitational 800m 2:27.06 5th · 1st on team 129.2 +2.9% SR
2018-03-10 Continental League Relays hj 4-00 +2.9%

2017 TF 133.3

Colorado (CO) · Grade 11

Date Meet Event Result Place Ratingi Difficultyi PR/SR Flags
2017-06-03 Great Southwest Classic 2ksteeple 7:44.62 3rd · 1st on team +1.9% ★PR SR
2017-06-03 Great Southwest Classic 800m 2:22.13 7th · 2nd on team 130.9 +1.9%
2017-05-06 Cherry Creek Invitational 400m 1:02.23 9th · 1st on team +1.8%
2017-04-15 Pomona Invite 800m 2:18.31 4th · 1st on team 135.4 +2.1% ★PR R SR RSR
2017-04-08 Legend Titan Track Clash 3200m 11:28.04 1st · 1st on team 133.5 +2.9% PR R SR RSR
2017-04-08 Legend Titan Track Clash 400m 1:01.87 4th · 1st on team +2.9% ★PR SR

2016 TF 121.4

Douglas County (CO) · Grade 10

Date Meet Event Result Place Ratingi Difficultyi PR/SR Flags
2016-05-02 Colorado Meet of Champions 1600m 5:53.63 18th · 1st on team 118.6 +2.2%
2016-04-23 Dakota Ridge Invite 1600m 5:38.76 2nd · 1st on team 124.3 +2.1% PR R SR RSR

2015 TF 120.1

Douglas County (CO) · Grade 9

Date Meet Event Result Place Ratingi Difficultyi PR/SR Flags
2015-04-29 Continental League Frosh-Soph 800m 2:33.53 5th · 1st on team 122.5 +2.9%
2015-04-25 Liberty Bell Invite 800m 2:35.66 36th · 1st on team 119.3 +1.7%
2015-04-18 Rock Canyon Jaguar Invitational 800m 2:31.47 2nd · 2nd on team 123.9 +2.9% PR R SR RSR
2015-04-11 Glenn Peterson Invitational 800m 2:39.71 5th · 1st on team 119.7 +4.7%
2015-03-28 Altitude Running Invitational 800m 2:42.27 10th · 3rd on team 115.6 +2.5%
2015-03-21 Sabercat Invite 800m 2:32.23 6th · 1st on team 123.1 +2.9% PR R SR RSR
2015-03-14 Valor Christian Invitational 800m 2:39.74 13th · 1st on team 116.9 +2.2% PR R SR RSR